Washington, Kentucky
Current Conditions -  °F | °C
As of 10:55 AM on Friday 31 Oct 2014 (Local Time) from KFGX Reporting Station
Overcast Overcast  
Wind Chill: 40°   Ceiling: 3600
Heat Index: 43°   Visibility: 7mi
Dew Point: 41°   Wind: 5mph
Humidity: 94%   Direction: 220°SW
Pressure: 29.98"   Gusts: NA
Location:  38.62°N, 83.81°W
Report Text: KFGX 311455Z AUTO 22004KT 7SM OVC036 06/05 A2998 RMK AO2 T00600051
Loading
Personal Weather Stations






























Interactive Weather Map
Tropical Storm Tracking
New forecast layout! Learn more

10-Day Weather Forecast

Advertisements
Track Severe Weather on mobile